Time;durP1;ratioP1;P1;durP2;ratioP2;P2;SDS_P1;SDS_P2;PMS_P1;PMS_P2;Temp;Humidity;BMP_temperature;BMP_pressure;BME280_temperature;BME280_humidity;BME280_pressure;Samples;Min_cycle;Max_cycle;Signal;HPM_P1;HPM_P2
2021/05/03 00:00:47;;;;;;;30.70;21.13;;;6.10;99.90;;;;;;5051340;28;20030;-74
2021/05/03 00:03:13;;;;;;;25.15;19.48;;;6.10;99.90;;;;;;5051678;28;20464;-74
2021/05/03 00:05:45;;;;;;;27.65;20.73;;;6.10;99.90;;;;;;5050030;28;20103;-74
2021/05/03 00:08:11;;;;;;;28.75;20.73;;;6.10;99.90;;;;;;5051501;28;20016;-74
2021/05/03 00:10:36;;;;;;;26.63;20.27;;;6.10;99.90;;;;;;5051484;28;20083;-74
2021/05/03 00:13:02;;;;;;;27.50;21.48;;;6.10;99.90;;;;;;5051095;28;20488;-74
2021/05/03 00:15:28;;;;;;;30.80;22.08;;;6.10;99.90;;;;;;5051112;28;20393;-74
2021/05/03 00:17:53;;;;;;;29.77;21.63;;;6.00;99.90;;;;;;5049695;28;20115;-74
2021/05/03 00:20:19;;;;;;;32.05;23.42;;;6.00;99.90;;;;;;5049645;28;20063;-74
2021/05/03 00:22:44;;;;;;;30.70;22.90;;;6.00;99.90;;;;;;5051168;28;20060;-74
2021/05/03 00:25:10;;;;;;;32.33;22.80;;;6.00;99.90;;;;;;5050817;28;20028;-74
2021/05/03 00:27:36;;;;;;;32.03;22.77;;;6.00;99.90;;;;;;5049598;28;20028;-74
2021/05/03 00:30:03;;;;;;;30.70;22.48;;;6.00;99.90;;;;;;5050317;28;20025;-74
2021/05/03 00:32:29;;;;;;;32.53;22.45;;;6.00;99.90;;;;;;5050770;28;20017;-74
2021/05/03 00:34:54;;;;;;;29.83;22.20;;;6.00;99.90;;;;;;5049512;28;20040;-74
2021/05/03 00:37:20;;;;;;;28.42;21.60;;;6.00;99.90;;;;;;5050453;28;20111;-74
2021/05/03 00:39:45;;;;;;;31.70;21.92;;;6.00;99.90;;;;;;5050628;28;20429;-74
2021/05/03 00:42:11;;;;;;;30.33;22.40;;;5.90;99.90;;;;;;5050662;28;20389;-74
2021/05/03 00:44:37;;;;;;;28.67;21.27;;;5.90;99.90;;;;;;5050638;28;20447;-74
2021/05/03 00:47:03;;;;;;;31.35;21.83;;;5.90;99.90;;;;;;5051103;28;20094;-74
2021/05/03 00:49:29;;;;;;;31.52;21.90;;;5.90;99.90;;;;;;5049212;28;20028;-74
2021/05/03 00:51:55;;;;;;;27.25;20.98;;;5.90;99.90;;;;;;5049209;28;20028;-74
2021/05/03 00:54:20;;;;;;;31.00;21.10;;;5.90;99.90;;;;;;5050417;28;20079;-74
2021/05/03 00:56:46;;;;;;;30.88;21.83;;;5.90;99.90;;;;;;5050265;28;20060;-74
2021/05/03 00:59:11;;;;;;;29.60;22.08;;;5.80;99.90;;;;;;5050491;28;20486;-74
2021/05/03 01:01:37;;;;;;;31.38;22.33;;;5.80;99.90;;;;;;5050232;28;20039;-74
2021/05/03 01:04:03;;;;;;;28.67;20.63;;;5.80;99.90;;;;;;5048900;28;20035;-74
2021/05/03 01:06:28;;;;;;;30.27;21.95;;;5.80;99.90;;;;;;5050612;28;20086;-74
2021/05/03 01:08:54;;;;;;;29.20;21.55;;;5.80;99.90;;;;;;5048844;28;20494;-74
2021/05/03 01:11:20;;;;;;;31.55;21.95;;;5.80;99.90;;;;;;5048848;28;20029;-74
2021/05/03 01:13:45;;;;;;;29.38;21.17;;;5.80;99.90;;;;;;5050216;28;20051;-74
2021/05/03 01:16:11;;;;;;;28.40;20.42;;;5.80;99.90;;;;;;5049628;28;20025;-74
2021/05/03 01:18:37;;;;;;;30.05;21.05;;;5.80;99.90;;;;;;5049810;28;20028;-74
2021/05/03 01:21:04;;;;;;;31.42;21.38;;;5.80;99.90;;;;;;5049959;28;20033;-74
2021/05/03 01:23:30;;;;;;;31.52;22.92;;;5.80;99.90;;;;;;5049979;28;20033;-74
2021/05/03 01:25:55;;;;;;;36.35;23.83;;;5.80;99.90;;;;;;5049746;28;20051;-74
2021/05/03 01:28:21;;;;;;;33.63;23.73;;;5.80;99.90;;;;;;5048461;28;20048;-74
2021/05/03 01:30:47;;;;;;;32.83;22.98;;;5.70;99.90;;;;;;5049671;28;20033;-74
2021/05/03 01:33:16;;;;;;;34.50;23.40;;;5.70;99.90;;;;;;5048452;28;20058;-74
2021/05/03 01:35:47;;;;;;;34.60;23.83;;;5.70;99.90;;;;;;5048441;28;20056;-74
2021/05/03 01:38:13;;;;;;;31.20;22.45;;;5.70;99.90;;;;;;5049470;28;20041;-74
2021/05/03 01:40:41;;;;;;;34.25;23.45;;;5.60;99.90;;;;;;5049804;28;20501;-74
2021/05/03 01:43:12;;;;;;;32.53;23.00;;;5.60;99.90;;;;;;5048832;28;20542;-74
2021/05/03 01:45:39;;;;;;;31.90;22.83;;;5.60;99.90;;;;;;5049500;28;20505;-74
2021/05/03 01:48:06;;;;;;;38.33;23.58;;;5.60;99.90;;;;;;5049470;28;20028;-74
2021/05/03 01:50:32;;;;;;;29.58;21.42;;;5.60;99.90;;;;;;5049456;28;20044;-74
2021/05/03 01:52:58;;;;;;;31.58;22.48;;;5.60;99.90;;;;;;5048443;28;20025;-74
2021/05/03 01:55:24;;;;;;;34.20;24.20;;;5.60;99.90;;;;;;5049998;28;20035;-74
2021/05/03 01:57:49;;;;;;;30.17;21.55;;;5.60;99.90;;;;;;5049328;28;20025;-74
2021/05/03 02:00:15;;;;;;;30.58;22.08;;;5.60;99.90;;;;;;5049231;28;20375;-74
2021/05/03 02:02:48;;;;;;;31.83;21.80;;;5.50;99.90;;;;;;5049330;28;20020;-74
2021/05/03 02:05:21;;;;;;;30.75;22.05;;;5.50;99.90;;;;;;5048663;28;20052;-74
2021/05/03 02:07:59;;;;;;;34.42;23.92;;;5.40;99.90;;;;;;5049244;28;20032;-74
2021/05/03 02:10:26;;;;;;;31.75;23.60;;;5.30;99.90;;;;;;5049432;28;20027;-74
2021/05/03 02:12:52;;;;;;;30.73;21.75;;;5.20;99.90;;;;;;5049208;28;20033;-74
2021/05/03 02:15:18;;;;;;;30.77;22.10;;;5.20;99.90;;;;;;5049171;28;20098;-74
2021/05/03 02:17:44;;;;;;;32.47;22.45;;;5.10;99.90;;;;;;5049173;28;20044;-74
2021/05/03 02:20:10;;;;;;;31.75;23.08;;;5.20;99.90;;;;;;5049355;28;20445;-75
2021/05/03 02:22:35;;;;;;;32.33;20.65;;;5.20;99.90;;;;;;5049052;28;20489;-74
2021/05/03 02:25:01;;;;;;;31.33;21.88;;;5.30;99.90;;;;;;5047803;28;20102;-74
2021/05/03 02:27:27;;;;;;;34.47;22.85;;;5.30;99.90;;;;;;5051332;28;20025;-74
2021/05/03 02:29:52;;;;;;;34.20;23.67;;;5.30;99.90;;;;;;5053108;28;20041;-74
2021/05/03 02:32:18;;;;;;;32.72;23.13;;;5.40;99.90;;;;;;5053101;28;20050;-74
2021/05/03 02:34:43;;;;;;;31.55;22.27;;;5.40;99.90;;;;;;5051818;28;20482;-74
2021/05/03 02:37:09;;;;;;;30.20;20.90;;;5.50;99.90;;;;;;5052964;28;20029;-74
2021/05/03 02:39:34;;;;;;;35.40;23.95;;;5.40;99.90;;;;;;5052957;28;20029;-74
2021/05/03 02:42:00;;;;;;;30.33;22.20;;;5.40;99.90;;;;;;5053171;28;20361;-74
2021/05/03 02:44:26;;;;;;;32.92;21.92;;;5.40;99.90;;;;;;5051668;28;20116;-74
2021/05/03 02:46:51;;;;;;;31.25;22.70;;;5.40;99.90;;;;;;5053035;28;20429;-74
2021/05/03 02:49:17;;;;;;;30.27;21.85;;;5.40;99.90;;;;;;5052811;28;20044;-74
2021/05/03 02:51:42;;;;;;;31.48;21.98;;;5.50;99.90;;;;;;5052800;28;20056;-74
2021/05/03 02:54:08;;;;;;;30.33;21.52;;;5.40;99.90;;;;;;5051394;28;20021;-74
2021/05/03 02:56:34;;;;;;;32.25;22.77;;;5.40;99.90;;;;;;5052549;28;20025;-74
2021/05/03 02:58:59;;;;;;;29.63;22.15;;;5.40;99.90;;;;;;5052456;28;20116;-74
2021/05/03 03:01:25;;;;;;;32.50;22.52;;;5.40;99.90;;;;;;5052501;28;20108;-74
2021/05/03 03:03:50;;;;;;;31.75;22.23;;;5.40;99.90;;;;;;5051249;28;20036;-74
2021/05/03 03:06:16;;;;;;;31.55;21.48;;;5.40;99.90;;;;;;5052341;28;20111;-74
2021/05/03 03:08:41;;;;;;;33.63;21.65;;;5.40;99.90;;;;;;5051185;28;20029;-74
2021/05/03 03:11:07;;;;;;;31.50;22.73;;;5.40;99.90;;;;;;5052320;28;20415;-74
2021/05/03 03:13:33;;;;;;;30.75;21.40;;;5.40;99.90;;;;;;5052610;28;20017;-74
2021/05/03 03:15:58;;;;;;;37.47;23.08;;;5.40;99.90;;;;;;5050960;28;20548;-74
2021/05/03 03:18:24;;;;;;;29.02;21.40;;;5.40;99.90;;;;;;5052268;28;20056;-74
2021/05/03 03:20:50;;;;;;;30.52;22.13;;;5.40;99.90;;;;;;5050868;28;20468;-74
2021/05/03 03:23:16;;;;;;;30.10;21.48;;;5.40;99.90;;;;;;5052042;28;20021;-74
2021/05/03 03:25:41;;;;;;;33.53;21.90;;;5.40;99.90;;;;;;5050769;28;20021;-74
2021/05/03 03:28:08;;;;;;;29.75;21.85;;;5.40;99.90;;;;;;5051902;28;20021;-74
2021/05/03 03:30:34;;;;;;;30.92;21.02;;;5.40;99.90;;;;;;5051999;28;20029;-74
2021/05/03 03:32:59;;;;;;;32.70;21.58;;;5.40;99.90;;;;;;5052011;28;20390;-74
2021/05/03 03:35:27;;;;;;;29.73;21.00;;;5.40;99.90;;;;;;5052221;28;20041;-74
2021/05/03 03:37:53;;;;;;;28.38;19.48;;;5.40;99.90;;;;;;5060902;22;20486;-76
2021/05/03 03:40:20;;;;;;;32.00;20.85;;;5.40;99.90;;;;;;5031827;28;20030;-77
2021/05/03 03:42:46;;;;;;;28.10;20.05;;;5.30;99.90;;;;;;5030793;28;20025;-76
2021/05/03 03:45:13;;;;;;;27.40;18.83;;;5.30;99.90;;;;;;5030672;28;20384;-76
2021/05/03 03:47:39;;;;;;;28.85;20.17;;;5.20;99.90;;;;;;5031752;28;20031;-77
2021/05/03 03:50:06;;;;;;;28.52;19.65;;;5.20;99.90;;;;;;5031843;28;20079;-77
2021/05/03 03:52:32;;;;;;;27.58;19.85;;;5.20;99.90;;;;;;5031928;28;20490;-76
2021/05/03 03:54:57;;;;;;;29.08;19.83;;;5.20;99.90;;;;;;5031700;28;20052;-76
2021/05/03 03:57:23;;;;;;;28.17;20.17;;;5.20;99.90;;;;;;5031488;28;20033;-76
2021/05/03 03:59:53;;;;;;;29.05;19.63;;;5.20;99.90;;;;;;5031576;28;20026;-76
2021/05/03 04:02:19;;;;;;;27.98;19.10;;;5.20;99.90;;;;;;5031906;28;20100;-77
2021/05/03 04:04:53;;;;;;;27.20;18.30;;;5.20;99.90;;;;;;5031674;28;20491;-76
2021/05/03 04:07:28;;;;;;;27.55;19.58;;;5.10;99.90;;;;;;5031412;28;20022;-76
2021/05/03 04:10:07;;;;;;;27.20;19.05;;;5.10;99.90;;;;;;5031666;28;20021;-76
2021/05/03 04:26:16;;;;;;;29.83;19.98;;;5.10;99.90;;;;;;5031766;28;20051;-76
2021/05/03 04:28:44;;;;;;;29.05;19.95;;;5.20;99.90;;;;;;5031424;28;20426;-76
2021/05/03 04:31:09;;;;;;;27.15;19.38;;;5.30;99.90;;;;;;5029809;28;20022;-76
2021/05/03 04:33:35;;;;;;;26.30;19.02;;;5.40;99.90;;;;;;5031062;28;20041;-76
2021/05/03 04:36:00;;;;;;;24.67;17.63;;;5.50;99.90;;;;;;5029770;28;20017;-76
2021/05/03 04:38:26;;;;;;;30.98;18.40;;;5.60;99.90;;;;;;5029629;28;20399;-76
2021/05/03 04:40:53;;;;;;;25.17;17.92;;;5.60;99.90;;;;;;5029680;28;20025;-76
2021/05/03 04:43:18;;;;;;;27.73;17.08;;;5.70;99.90;;;;;;5029605;28;20479;-76
2021/05/03 04:45:44;;;;;;;28.20;17.95;;;5.70;99.90;;;;;;5030722;28;20083;-76
2021/05/03 04:48:09;;;;;;;24.40;17.73;;;5.80;99.90;;;;;;5030740;28;20025;-76
2021/05/03 04:50:35;;;;;;;23.45;16.65;;;5.80;99.90;;;;;;5029825;28;20029;-76
2021/05/03 04:53:01;;;;;;;22.77;16.30;;;5.90;99.90;;;;;;5029467;28;20026;-76
2021/05/03 04:55:26;;;;;;;21.60;15.43;;;6.00;99.90;;;;;;5029423;28;20441;-76
2021/05/03 04:57:52;;;;;;;22.70;15.90;;;6.10;99.90;;;;;;5030667;28;20108;-76
2021/05/03 05:00:18;;;;;;;21.95;15.45;;;6.20;99.90;;;;;;5030449;28;20072;-76
2021/05/03 05:02:43;;;;;;;21.30;15.38;;;6.30;99.90;;;;;;5030534;28;20013;-76
2021/05/03 05:05:11;;;;;;;19.23;14.07;;;6.30;99.90;;;;;;5030536;28;20033;-76
2021/05/03 05:07:37;;;;;;;22.77;16.48;;;6.30;99.90;;;;;;5030384;28;20025;-76
2021/05/03 05:10:05;;;;;;;24.75;16.95;;;6.30;99.90;;;;;;5030364;28;20025;-76
2021/05/03 05:12:39;;;;;;;22.10;15.20;;;6.20;99.90;;;;;;5030330;28;20118;-76
2021/05/03 05:15:06;;;;;;;22.80;15.95;;;6.20;99.90;;;;;;5029541;28;20021;-76
2021/05/03 05:17:32;;;;;;;22.65;15.30;;;6.10;99.90;;;;;;5030247;28;20045;-76
2021/05/03 05:19:59;;;;;;;26.80;16.33;;;6.10;99.90;;;;;;5030230;28;20457;-76
2021/05/03 05:22:24;;;;;;;23.33;16.15;;;6.20;99.90;;;;;;5030274;28;20037;-76
2021/05/03 05:24:51;;;;;;;21.42;15.10;;;6.20;99.90;;;;;;5028973;28;20387;-76
2021/05/03 05:27:16;;;;;;;22.48;15.43;;;6.20;99.90;;;;;;5030151;28;20021;-76
2021/05/03 05:29:42;;;;;;;22.80;15.55;;;6.30;99.90;;;;;;5030166;28;20445;-76
2021/05/03 05:32:08;;;;;;;23.23;15.55;;;6.40;99.90;;;;;;5030036;28;20108;-76
2021/05/03 05:34:33;;;;;;;22.73;16.48;;;6.50;99.90;;;;;;5028801;28;20044;-76
2021/05/03 05:36:59;;;;;;;22.75;15.18;;;6.60;99.90;;;;;;5028651;28;20038;-76
2021/05/03 05:39:24;;;;;;;23.35;15.65;;;6.70;99.90;;;;;;5029735;28;20033;-77
2021/05/03 05:41:50;;;;;;;22.70;15.07;;;6.80;99.90;;;;;;5028521;28;20486;-76
2021/05/03 05:44:16;;;;;;;21.60;14.57;;;6.90;99.90;;;;;;5028562;28;20032;-76
2021/05/03 05:46:44;;;;;;;22.05;16.35;;;7.00;99.90;;;;;;5029814;28;20037;-76
2021/05/03 05:49:09;;;;;;;20.25;15.30;;;7.10;99.90;;;;;;5030317;28;20035;-76
2021/05/03 05:51:35;;;;;;;22.25;15.98;;;7.30;99.90;;;;;;5030044;28;20034;-77
2021/05/03 05:54:01;;;;;;;19.55;14.13;;;7.40;99.90;;;;;;5028491;28;20022;-76
2021/05/03 05:56:26;;;;;;;22.80;15.77;;;7.50;99.90;;;;;;5029606;28;20088;-76
2021/05/03 05:58:52;;;;;;;22.40;15.73;;;7.60;99.90;;;;;;5028262;28;20073;-76
2021/05/03 06:01:17;;;;;;;21.27;14.55;;;7.80;99.90;;;;;;5028145;28;20025;-75
2021/05/03 06:03:43;;;;;;;21.58;16.13;;;7.80;99.90;;;;;;5029896;28;20079;-75
2021/05/03 06:06:09;;;;;;;19.75;14.48;;;7.90;99.90;;;;;;5028219;28;20060;-76
2021/05/03 06:08:35;;;;;;;21.48;14.70;;;8.00;99.90;;;;;;5029560;28;20049;-75
2021/05/03 06:11:02;;;;;;;21.30;14.50;;;8.20;99.90;;;;;;5029540;28;20091;-75
2021/05/03 06:13:28;;;;;;;20.13;15.23;;;8.20;99.90;;;;;;5029648;28;20060;-76
2021/05/03 06:15:55;;;;;;;18.55;14.52;;;8.20;99.90;;;;;;5028989;28;20056;-76
2021/05/03 06:18:21;;;;;;;19.10;14.00;;;8.10;99.90;;;;;;5030234;28;20026;-76
2021/05/03 06:20:47;;;;;;;18.30;14.38;;;8.10;99.90;;;;;;5028562;28;20036;-76
2021/05/03 06:23:13;;;;;;;18.70;13.45;;;8.10;99.90;;;;;;5028538;28;20060;-77
2021/05/03 06:25:41;;;;;;;19.50;13.88;;;8.30;99.90;;;;;;5028376;28;20433;-76
2021/05/03 06:28:08;;;;;;;18.02;13.30;;;8.50;99.90;;;;;;5029557;28;20483;-76
2021/05/03 06:30:34;;;;;;;17.65;13.13;;;8.80;99.90;;;;;;5028332;28;20040;-76
2021/05/03 06:33:00;;;;;;;17.35;12.02;;;9.00;99.90;;;;;;5028625;28;20125;-76
2021/05/03 06:35:26;;;;;;;16.40;12.10;;;9.30;99.90;;;;;;5030873;28;20030;-76
2021/05/03 06:37:52;;;;;;;14.45;10.85;;;9.50;99.90;;;;;;5028663;28;20042;-77
2021/05/03 06:40:19;;;;;;;14.68;11.35;;;9.80;99.90;;;;;;5029700;28;20537;-77
2021/05/03 06:42:47;;;;;;;14.85;11.80;;;9.90;99.90;;;;;;5029827;28;20026;-77
2021/05/03 06:45:13;;;;;;;15.05;10.98;;;9.80;99.90;;;;;;5029393;28;20056;-77
2021/05/03 06:47:39;;;;;;;14.40;11.32;;;9.90;99.90;;;;;;5027989;28;20483;-76
2021/05/03 06:50:07;;;;;;;16.08;11.00;;;9.90;99.90;;;;;;5029362;28;20109;-77
2021/05/03 06:52:32;;;;;;;16.77;10.88;;;9.70;99.90;;;;;;5029296;28;20034;-77
2021/05/03 06:54:58;;;;;;;17.60;11.05;;;9.50;99.90;;;;;;5029510;28;20032;-76
2021/05/03 06:57:23;;;;;;;14.68;10.65;;;9.50;99.90;;;;;;5029261;28;20467;-76
2021/05/03 06:59:49;;;;;;;14.45;11.32;;;9.70;99.90;;;;;;5027874;28;20029;-76
2021/05/03 07:02:15;;;;;;;17.42;10.52;;;9.90;99.90;;;;;;5029438;28;20064;-76
2021/05/03 07:04:41;;;;;;;13.27;10.30;;;10.00;99.90;;;;;;5027870;28;20033;-76
2021/05/03 07:07:06;;;;;;;13.70;10.35;;;10.10;99.90;;;;;;5028892;28;20418;-77
2021/05/03 07:09:33;;;;;;;14.48;10.55;;;10.30;99.90;;;;;;5028972;28;20068;-76
2021/05/03 07:12:07;;;;;;;15.38;10.70;;;10.60;99.90;;;;;;5028895;28;20021;-76
2021/05/03 07:14:32;;;;;;;12.95;10.35;;;10.90;99.90;;;;;;5032852;28;20025;-77
2021/05/03 07:16:58;;;;;;;14.77;11.15;;;10.90;99.90;;;;;;5032478;28;20022;-76
2021/05/03 07:19:23;;;;;;;12.57;10.43;;;11.00;99.90;;;;;;5032364;28;20030;-76
2021/05/03 07:21:49;;;;;;;11.25;9.23;;;11.20;99.90;;;;;;5031162;28;20022;-77
2021/05/03 07:24:15;;;;;;;12.85;9.02;;;11.30;99.90;;;;;;5032450;28;20021;-76
2021/05/03 07:26:41;;;;;;;11.95;9.20;;;11.50;99.90;;;;;;5031097;28;20025;-76
2021/05/03 07:29:06;;;;;;;11.77;9.80;;;11.70;99.90;;;;;;5032553;28;20021;-77
2021/05/03 07:31:32;;;;;;;12.35;9.23;;;12.00;99.90;;;;;;5032848;28;20099;-76
2021/05/03 07:33:58;;;;;;;13.00;10.07;;;12.20;99.90;;;;;;5031067;28;20037;-77
2021/05/03 07:36:23;;;;;;;15.52;9.45;;;12.10;99.90;;;;;;5032333;28;20030;-76
2021/05/03 07:38:51;;;;;;;14.55;11.65;;;12.20;99.90;;;;;;5030853;28;20154;-76
2021/05/03 07:41:17;;;;;;;10.55;8.40;;;12.30;99.90;;;;;;5032474;28;20025;-76
2021/05/03 07:43:42;;;;;;;10.75;7.97;;;12.50;99.90;;;;;;5030850;28;20027;-75
2021/05/03 07:46:08;;;;;;;10.80;7.90;;;12.80;99.90;;;;;;5032566;28;20032;-77
2021/05/03 07:48:33;;;;;;;10.27;8.63;;;13.30;99.90;;;;;;5032567;28;20025;-76
2021/05/03 07:50:59;;;;;;;8.98;7.70;;;13.80;99.90;;;;;;5032033;28;20474;-76
2021/05/03 07:53:24;;;;;;;9.98;6.90;;;13.90;99.50;;;;;;5030581;28;20403;-77
2021/05/03 07:55:50;;;;;;;8.73;7.40;;;13.80;93.50;;;;;;5032367;28;20112;-77
2021/05/03 07:58:15;;;;;;;9.70;7.43;;;13.60;93.20;;;;;;5031778;28;20104;-76
2021/05/03 08:00:41;;;;;;;8.98;6.65;;;13.60;93.80;;;;;;5030479;28;20090;-76
2021/05/03 08:03:06;;;;;;;7.53;6.15;;;14.00;91.60;;;;;;5031751;28;20044;-76
2021/05/03 08:05:32;;;;;;;9.15;7.30;;;13.90;89.80;;;;;;5030448;28;20029;-76
2021/05/03 08:07:58;;;;;;;8.52;6.63;;;13.70;90.40;;;;;;5030196;28;20029;-75
2021/05/03 08:10:23;;;;;;;7.50;6.32;;;13.20;82.80;;;;;;5031886;28;20048;-75
2021/05/03 08:12:51;;;;;;;9.75;8.05;;;12.80;87.20;;;;;;5031571;28;20061;-75
2021/05/03 08:15:19;;;;;;;9.30;7.05;;;12.80;90.60;;;;;;5031423;28;20028;-75
2021/05/03 08:17:45;;;;;;;11.13;6.68;;;12.80;90.20;;;;;;5031363;28;20483;-75
2021/05/03 08:20:15;;;;;;;13.02;7.13;;;12.90;90.20;;;;;;5031250;28;20057;-75
2021/05/03 08:22:41;;;;;;;9.20;6.68;;;13.00;90.90;;;;;;5029890;28;20021;-75
2021/05/03 08:25:07;;;;;;;10.95;7.53;;;13.10;91.50;;;;;;5030043;28;20025;-75
2021/05/03 08:27:34;;;;;;;8.13;6.65;;;13.40;90.90;;;;;;5029893;28;20514;-75
2021/05/03 08:30:00;;;;;;;9.27;7.20;;;13.50;90.30;;;;;;5029949;28;20037;-76
2021/05/03 08:32:25;;;;;;;10.02;6.97;;;13.60;89.30;;;;;;5031277;28;20026;-75
2021/05/03 08:34:51;;;;;;;9.10;7.00;;;13.90;90.10;;;;;;5029823;28;20040;-76
2021/05/03 08:37:17;;;;;;;10.68;7.30;;;14.70;87.20;;;;;;5029622;28;20037;-76
2021/05/03 08:39:43;;;;;;;11.50;7.50;;;15.00;83.40;;;;;;5029749;28;20030;-75
2021/05/03 08:42:10;;;;;;;8.73;6.80;;;15.20;82.10;;;;;;5030070;28;20017;-76
2021/05/03 08:44:35;;;;;;;10.23;7.82;;;15.20;81.30;;;;;;5030951;28;20466;-75
2021/05/03 08:47:02;;;;;;;10.23;7.05;;;14.90;77.30;;;;;;5029570;28;20033;-75
2021/05/03 08:54:35;;;;;;;10.52;7.57;;;15.60;74.80;;;;;;5031433;28;20544;-75
2021/05/03 08:57:02;;;;;;;8.63;6.88;;;15.80;74.20;;;;;;5030576;28;20033;-75
2021/05/03 08:59:27;;;;;;;8.68;7.15;;;15.90;78.00;;;;;;5030549;28;20029;-76
2021/05/03 09:01:53;;;;;;;9.32;7.47;;;16.40;71.70;;;;;;5030879;28;20459;-76
2021/05/03 09:04:19;;;;;;;12.10;7.40;;;16.50;65.60;;;;;;5030472;28;20088;-75
2021/05/03 09:07:16;;;;;;;10.48;8.00;;;16.10;67.40;;;;;;5030525;28;20017;-75
2021/05/03 09:09:51;;;;;;;8.65;7.32;;;15.30;72.40;;;;;;5030629;28;20112;-76
2021/05/03 09:12:19;;;;;;;9.60;7.10;;;14.80;72.10;;;;;;5030592;28;20101;-76
2021/05/03 09:14:45;;;;;;;8.90;7.00;;;14.30;75.00;;;;;;5029118;28;20048;-74
2021/05/03 09:17:25;;;;;;;9.25;7.75;;;14.20;79.20;;;;;;5029083;28;20486;-74
2021/05/03 09:19:50;;;;;;;9.88;7.22;;;13.90;75.20;;;;;;5030271;28;20368;-75
2021/05/03 09:22:58;;;;;;;10.82;8.70;;;13.70;77.30;;;;;;5030468;28;20133;-75
2021/05/03 09:25:26;;;;;;;12.23;9.10;;;13.60;80.40;;;;;;5029841;28;20025;-75
2021/05/03 09:28:15;;;;;;;11.18;8.65;;;14.30;78.30;;;;;;5030238;28;20024;-75
2021/05/03 09:30:43;;;;;;;11.55;8.70;;;15.00;73.50;;;;;;5030180;28;20029;-75
2021/05/03 09:33:19;;;;;;;8.93;7.47;;;15.90;71.50;;;;;;5029007;28;20117;-76
2021/05/03 09:35:56;;;;;;;11.68;7.57;;;17.10;65.90;;;;;;5028444;28;20033;-76
2021/05/03 09:38:34;;;;;;;8.63;6.93;;;18.10;62.60;;;;;;5054144;22;20071;-75
2021/05/03 09:41:29;;;;;;;6.13;5.35;;;19.10;59.70;;;;;;5030297;28;20021;-76
2021/05/03 09:44:05;;;;;;;9.25;6.57;;;18.80;58.70;;;;;;5029875;28;20067;-74
2021/05/03 09:46:42;;;;;;;7.85;5.53;;;17.80;60.40;;;;;;5030120;28;20044;-75
2021/05/03 09:49:13;;;;;;;8.73;6.28;;;17.40;62.80;;;;;;5029891;28;20080;-75
2021/05/03 09:51:46;;;;;;;7.72;5.82;;;17.10;63.90;;;;;;5028650;28;20040;-76
2021/05/03 09:54:15;;;;;;;6.90;5.47;;;16.80;63.80;;;;;;5028614;28;20021;-73
2021/05/03 09:56:47;;;;;;;7.80;5.95;;;16.60;65.10;;;;;;5029675;28;20030;-74
2021/05/03 09:59:34;;;;;;;7.35;5.70;;;16.30;66.70;;;;;;5029687;28;20030;-73
2021/05/03 10:02:26;;;;;;;8.65;6.90;;;16.10;67.70;;;;;;5029758;28;20092;-72
2021/05/03 10:05:18;;;;;;;8.07;5.82;;;15.60;69.00;;;;;;5028977;28;20064;-73
2021/05/03 10:07:51;;;;;;;5.13;4.07;;;15.20;70.70;;;;;;5029556;28;20017;-74
2021/05/03 10:10:20;;;;;;;7.07;5.28;;;15.70;67.30;;;;;;5029677;28;20021;-74
2021/05/03 10:12:47;;;;;;;8.50;5.93;;;16.50;61.20;;;;;;5029533;28;20386;-74
2021/05/03 10:15:15;;;;;;;6.38;4.55;;;17.90;56.10;;;;;;5029599;28;20017;-74
2021/05/03 10:17:43;;;;;;;6.70;4.30;;;18.50;50.90;;;;;;5028224;28;20033;-74
2021/05/03 10:20:10;;;;;;;5.00;3.95;;;18.60;50.60;;;;;;5029731;28;20021;-74
2021/05/03 10:22:36;;;;;;;5.82;3.40;;;18.50;51.30;;;;;;5028123;28;20029;-73
2021/05/03 10:25:09;;;;;;;4.28;2.97;;;18.60;50.80;;;;;;5028228;28;20025;-74
2021/05/03 10:27:38;;;;;;;;;;;18.00;51.90;;;;;;5029250;28;20029;-74
2021/05/03 10:30:12;;;;;;;5.50;3.75;;;16.90;53.10;;;;;;5029162;28;19908;-74
2021/05/03 10:32:39;;;;;;;7.70;3.95;;;16.20;54.40;;;;;;5029322;28;20112;-73
2021/05/03 10:35:07;;;;;;;7.80;4.75;;;15.90;56.90;;;;;;5027227;28;20026;-74
2021/05/03 10:37:41;;;;;;;7.00;4.70;;;16.00;58.50;;;;;;5027736;28;20040;-73
2021/05/03 10:40:33;;;;;;;7.00;5.25;;;16.00;56.80;;;;;;5029409;28;20025;-73
2021/05/03 10:43:06;;;;;;;6.85;5.30;;;16.20;56.70;;;;;;5029225;28;20028;-74
2021/05/03 10:45:53;;;;;;;7.70;5.22;;;18.20;56.20;;;;;;5027879;28;20395;-75
2021/05/03 10:48:38;;;;;;;7.85;6.03;;;22.10;47.90;;;;;;5029858;28;20506;-75
2021/05/03 10:51:07;;;;;;;7.40;6.07;;;23.90;43.30;;;;;;5033056;28;20036;-75
2021/05/03 10:53:37;;;;;;;9.30;6.72;;;23.10;41.40;;;;;;5033158;28;20418;-74
2021/05/03 10:56:06;;;;;;;7.60;6.55;;;21.90;42.60;;;;;;5032980;28;20049;-74
2021/05/03 10:58:54;;;;;;;7.30;5.97;;;20.50;48.00;;;;;;5032866;28;20112;-75
2021/05/03 11:01:20;;;;;;;7.35;5.53;;;19.70;53.10;;;;;;5033027;28;20443;-75
2021/05/03 11:03:55;;;;;;;7.28;6.22;;;20.40;51.90;;;;;;5033219;28;20025;-76
2021/05/03 11:06:36;;;;;;;8.20;5.88;;;21.80;48.60;;;;;;5033919;28;20382;-75
2021/05/03 11:09:36;;;;;;;6.15;4.55;;;23.70;42.20;;;;;;5032654;28;20021;-75
2021/05/03 11:12:21;;;;;;;6.22;4.90;;;25.60;38.60;;;;;;5033300;28;20021;-75
2021/05/03 11:15:21;;;;;;;4.72;3.90;;;27.60;34.60;;;;;;5032646;28;20094;-73
2021/05/03 11:18:25;;;;;;;5.07;4.10;;;30.10;30.90;;;;;;5032616;28;20028;-73
2021/05/03 11:20:58;;;;;;;4.82;3.33;;;32.30;29.10;;;;;;5031154;28;20077;-74
2021/05/03 11:23:32;;;;;;;3.88;3.40;;;33.90;27.10;;;;;;5031592;28;20039;-74
2021/05/03 11:25:58;;;;;;;3.75;3.30;;;34.40;24.20;;;;;;5032797;28;20060;-73
2021/05/03 11:28:29;;;;;;;6.55;3.30;;;34.30;24.50;;;;;;5032244;28;20017;-73
2021/05/03 11:30:59;;;;;;;4.05;3.53;;;34.00;25.50;;;;;;5032614;28;20378;-74
2021/05/03 11:33:40;;;;;;;4.57;3.78;;;34.50;24.80;;;;;;5032607;28;20036;-75
2021/05/03 11:36:16;;;;;;;4.25;3.20;;;34.70;24.40;;;;;;5030986;28;20521;-74
2021/05/03 11:41:31;;;;;;;4.20;3.80;;;33.40;24.30;;;;;;5032453;28;20083;-74
2021/05/03 11:46:38;;;;;;;7.65;5.68;;;33.70;26.70;;;;;;5032261;28;20032;-75
2021/05/03 11:49:10;;;;;;;4.75;4.22;;;34.60;24.90;;;;;;5031867;28;20434;-74
2021/05/03 11:51:45;;;;;;;4.53;4.13;;;34.60;23.70;;;;;;5031750;28;20391;-74
2021/05/03 11:54:22;;;;;;;4.82;4.38;;;34.40;24.20;;;;;;5030516;28;20284;-74
2021/05/03 11:56:56;;;;;;;4.40;4.00;;;34.70;24.60;;;;;;5031863;28;20029;-74
2021/05/03 11:59:21;;;;;;;5.07;4.30;;;34.50;24.10;;;;;;5031301;28;20483;-74
2021/05/03 12:01:57;;;;;;;3.85;3.42;;;34.80;24.60;;;;;;5031729;28;20036;-74
2021/05/03 12:04:48;;;;;;;4.28;3.88;;;35.50;24.00;;;;;;5030372;28;20028;-74
2021/05/03 12:07:30;;;;;;;5.05;4.50;;;35.90;23.40;;;;;;5031797;28;20022;-74
2021/05/03 12:10:05;;;;;;;3.85;3.25;;;35.20;23.80;;;;;;5031436;28;20457;-74
2021/05/03 12:12:33;;;;;;;4.75;4.35;;;35.10;23.10;;;;;;5031751;28;20041;-74
2021/05/03 12:14:59;;;;;;;5.90;4.40;;;35.10;23.10;;;;;;5031463;28;20084;-75
2021/05/03 12:17:29;;;;;;;4.88;4.47;;;34.10;23.80;;;;;;5031733;28;20097;-74
2021/05/03 12:20:07;;;;;;;4.95;4.20;;;32.60;25.10;;;;;;5031126;28;20029;-74
2021/05/03 12:22:33;;;;;;;5.95;4.78;;;31.30;26.50;;;;;;5031292;28;20486;-74
2021/05/03 12:25:05;;;;;;;7.00;4.40;;;30.40;27.60;;;;;;5031490;28;20053;-73
2021/05/03 12:27:33;;;;;;;9.80;4.28;;;29.50;27.70;;;;;;5031539;28;20021;-73
2021/05/03 12:29:59;;;;;;;6.88;4.80;;;27.50;28.20;;;;;;5031119;28;20029;-74
2021/05/03 12:32:31;;;;;;;4.85;4.20;;;25.80;30.80;;;;;;5031112;28;20025;-73
2021/05/03 12:34:57;;;;;;;5.03;4.47;;;26.40;30.20;;;;;;5029838;28;20123;-73
2021/05/03 12:37:29;;;;;;;5.55;4.97;;;26.20;29.40;;;;;;5029592;28;20060;-73
2021/05/03 12:40:05;;;;;;;4.97;4.32;;;25.50;29.90;;;;;;5029679;28;20075;-73
2021/05/03 12:42:36;;;;;;;5.85;4.95;;;23.70;33.60;;;;;;5029701;28;20041;-73
2021/05/03 12:50:48;;;;;;;7.97;4.95;;;20.00;39.40;;;;;;5031195;28;20109;-72
2021/05/03 12:58:49;;;;;;;5.25;4.07;;;22.10;37.20;;;;;;5031193;28;20037;-73
2021/05/03 13:01:39;;;;;;;7.22;4.68;;;24.10;34.70;;;;;;5030162;28;20045;-73
2021/05/03 13:04:25;;;;;;;6.30;4.95;;;25.10;31.30;;;;;;5030472;28;20038;-71
2021/05/03 13:12:35;;;;;;;4.18;3.78;;;22.10;35.20;;;;;;5029952;28;20021;-70
2021/05/03 13:23:45;;;;;;;5.30;3.95;;;23.20;33.90;;;;;;5030058;28;20099;-73
2021/05/03 13:29:03;;;;;;;4.80;4.30;;;24.60;29.30;;;;;;5021668;28;20035;-72
2021/05/03 13:31:30;;;;;;;5.55;4.93;;;22.30;32.70;;;;;;5030001;28;20032;-73
2021/05/03 13:33:56;;;;;;;7.18;4.80;;;20.80;36.00;;;;;;5030267;28;20061;-72
2021/05/03 13:36:23;;;;;;;5.55;4.15;;;21.10;36.90;;;;;;5029925;28;20402;-73
2021/05/03 13:38:49;;;;;;;7.15;4.32;;;22.20;36.00;;;;;;5028488;28;20120;-75
2021/05/03 13:41:15;;;;;;;5.47;4.32;;;22.00;33.90;;;;;;5030135;28;20437;-73